QFA2540 WALL-WADD
Flight info
| Callsign | QFA2540 |
|---|---|
| Flight time | 1h 12m |
| Altitude | 34000 |
| Route | DADBI DCT ISRUL W46 MALGI |
| Aircraft | B738/M-SDE2E3FGHIRWXY/LB1 |
Departure
| Time | 2026-04-24 03:28 |
|---|---|
| Airport | Sultan Aji Muhammad Sulaiman Sepinggan International Airport (WALL) |
Arrival
| Time | 2026-04-24 04:41 |
|---|---|
| Airport | Denpasar I Gusti Ngurah Rai International Airport (WADD) |
| Time | Latitude | Longitude | Altitude | Speed | Heading |
|---|---|---|---|---|---|
| 2026-04-24 03:18 | -1.26268 | 116.89963 | 20 ft | 0 kts | 339° |
| 2026-04-24 03:22 | -1.26274 | 116.89965 | 21 ft | 2 kts | 339° |
| 2026-04-24 03:22 | -1.26289 | 116.89970 | 21 ft | 2 kts | 339° |
| 2026-04-24 03:23 | -1.26304 | 116.89976 | 21 ft | 2 kts | 339° |
| 2026-04-24 03:23 | -1.26319 | 116.89983 | 23 ft | 2 kts | 322° |
| 2026-04-24 03:23 | -1.26328 | 116.89994 | 24 ft | 1 kts | 258° |
| 2026-04-24 03:23 | -1.26327 | 116.90000 | 22 ft | 0 kts | 248° |
| 2026-04-24 03:25 | -1.26334 | 116.89983 | 22 ft | 6 kts | 246° |
| 2026-04-24 03:26 | -1.26370 | 116.89908 | 20 ft | 19 kts | 244° |
| 2026-04-24 03:26 | -1.26461 | 116.89769 | 20 ft | 29 kts | 204° |
| 2026-04-24 03:26 | -1.26599 | 116.89598 | 20 ft | 38 kts | 252° |
| 2026-04-24 03:26 | -1.26710 | 116.89316 | 20 ft | 48 kts | 247° |
| 2026-04-24 03:27 | -1.26842 | 116.89012 | 21 ft | 47 kts | 247° |
| 2026-04-24 03:27 | -1.26961 | 116.88715 | 20 ft | 45 kts | 248° |
| 2026-04-24 03:27 | -1.27071 | 116.88449 | 21 ft | 31 kts | 246° |
| 2026-04-24 03:27 | -1.27222 | 116.88392 | 20 ft | 27 kts | 139° |
| 2026-04-24 03:28 | -1.27179 | 116.88643 | 21 ft | 69 kts | 67° |
| 2026-04-24 03:28 | -1.26898 | 116.89304 | 20 ft | 134 kts | 67° |
| 2026-04-24 03:28 | -1.26480 | 116.90278 | 329 ft | 164 kts | 68° |
| 2026-04-24 03:28 | -1.25990 | 116.91410 | 802 ft | 191 kts | 66° |
| 2026-04-24 03:29 | -1.25482 | 116.92601 | 1819 ft | 180 kts | 66° |
| 2026-04-24 03:29 | -1.24971 | 116.93803 | 2413 ft | 199 kts | 65° |
| 2026-04-24 03:29 | -1.24406 | 116.95127 | 2816 ft | 214 kts | 66° |
| 2026-04-24 03:29 | -1.23981 | 116.96559 | 3392 ft | 220 kts | 88° |
| 2026-04-24 03:30 | -1.24340 | 116.98030 | 4169 ft | 223 kts | 118° |
| 2026-04-24 03:30 | -1.25484 | 116.99181 | 4495 ft | 252 kts | 149° |
| 2026-04-24 03:30 | -1.27147 | 116.99953 | 4894 ft | 272 kts | 155° |
| 2026-04-24 03:30 | -1.28925 | 117.00689 | 4974 ft | 280 kts | 155° |
| 2026-04-24 03:31 | -1.30707 | 117.01416 | 4988 ft | 279 kts | 156° |
| 2026-04-24 03:31 | -1.32493 | 117.02148 | 4975 ft | 276 kts | 155° |
| 2026-04-24 03:31 | -1.34262 | 117.02881 | 4986 ft | 275 kts | 155° |
| 2026-04-24 03:31 | -1.36031 | 117.03619 | 4999 ft | 276 kts | 155° |
| 2026-04-24 03:32 | -1.37805 | 117.04363 | 4998 ft | 277 kts | 155° |
| 2026-04-24 03:32 | -1.39586 | 117.05112 | 5002 ft | 278 kts | 155° |
| 2026-04-24 03:32 | -1.41375 | 117.05866 | 4996 ft | 279 kts | 155° |
| 2026-04-24 03:32 | -1.43162 | 117.06620 | 5000 ft | 279 kts | 155° |
| 2026-04-24 03:33 | -1.44955 | 117.07371 | 4992 ft | 279 kts | 158° |
| 2026-04-24 03:33 | -1.46871 | 117.07639 | 5030 ft | 283 kts | 183° |
| 2026-04-24 03:33 | -1.48837 | 117.07375 | 5613 ft | 285 kts | 187° |
| 2026-04-24 03:33 | -1.50788 | 117.07041 | 6460 ft | 285 kts | 188° |
| 2026-04-24 03:34 | -1.52752 | 117.06693 | 7213 ft | 288 kts | 188° |
| 2026-04-24 03:34 | -1.54732 | 117.06343 | 7935 ft | 291 kts | 188° |
| 2026-04-24 03:34 | -1.56741 | 117.05990 | 8663 ft | 294 kts | 187° |
| 2026-04-24 03:34 | -1.58742 | 117.05642 | 9382 ft | 297 kts | 187° |
| 2026-04-24 03:35 | -1.60789 | 117.05289 | 10077 ft | 300 kts | 187° |
| 2026-04-24 03:35 | -1.62897 | 117.04929 | 10416 ft | 318 kts | 187° |
| 2026-04-24 03:35 | -1.65144 | 117.04547 | 10686 ft | 335 kts | 187° |
| 2026-04-24 03:35 | -1.67466 | 117.04153 | 11243 ft | 341 kts | 187° |
| 2026-04-24 03:36 | -1.69813 | 117.03753 | 11915 ft | 343 kts | 187° |
| 2026-04-24 03:36 | -1.72176 | 117.03351 | 12595 ft | 346 kts | 187° |
| 2026-04-24 03:36 | -1.73755 | 117.03082 | 13022 ft | 349 kts | 187° |
| 2026-04-24 03:36 | -1.76161 | 117.02674 | 13688 ft | 353 kts | 188° |
| 2026-04-24 03:37 | -1.78592 | 117.02261 | 14296 ft | 356 kts | 188° |
| 2026-04-24 03:37 | -1.81043 | 117.01845 | 14919 ft | 359 kts | 187° |
| 2026-04-24 03:37 | -1.83518 | 117.01425 | 15554 ft | 362 kts | 187° |
| 2026-04-24 03:37 | -1.86010 | 117.01002 | 16176 ft | 365 kts | 187° |
| 2026-04-24 03:38 | -1.88527 | 117.00575 | 16780 ft | 369 kts | 187° |
| 2026-04-24 03:38 | -1.91069 | 117.00144 | 17376 ft | 372 kts | 187° |
| 2026-04-24 03:38 | -1.93635 | 116.99709 | 17990 ft | 375 kts | 187° |
| 2026-04-24 03:38 | -1.96223 | 116.99270 | 18530 ft | 379 kts | 187° |
| 2026-04-24 03:39 | -1.98829 | 116.98828 | 19047 ft | 382 kts | 187° |
| 2026-04-24 03:39 | -2.01455 | 116.98382 | 19564 ft | 384 kts | 187° |
| 2026-04-24 03:39 | -2.04100 | 116.97933 | 20089 ft | 387 kts | 187° |
| 2026-04-24 03:39 | -2.06771 | 116.97480 | 20593 ft | 390 kts | 188° |
| 2026-04-24 03:40 | -2.10334 | 116.96876 | 21250 ft | 394 kts | 188° |
| 2026-04-24 03:40 | -2.12125 | 116.96572 | 21579 ft | 396 kts | 188° |
| 2026-04-24 03:40 | -2.14852 | 116.96109 | 22073 ft | 399 kts | 188° |
| 2026-04-24 03:40 | -2.17601 | 116.95642 | 22549 ft | 402 kts | 188° |
| 2026-04-24 03:41 | -2.20371 | 116.95172 | 23017 ft | 405 kts | 188° |
| 2026-04-24 03:41 | -2.23158 | 116.94699 | 23473 ft | 408 kts | 188° |
| 2026-04-24 03:41 | -2.25965 | 116.94223 | 23856 ft | 410 kts | 188° |
| 2026-04-24 03:41 | -2.28793 | 116.93743 | 24243 ft | 413 kts | 188° |
| 2026-04-24 03:42 | -2.31630 | 116.93261 | 24629 ft | 415 kts | 188° |
| 2026-04-24 03:42 | -2.34484 | 116.92777 | 25008 ft | 417 kts | 188° |
| 2026-04-24 03:42 | -2.37319 | 116.92295 | 25372 ft | 419 kts | 188° |
| 2026-04-24 03:42 | -2.40217 | 116.91803 | 25740 ft | 422 kts | 188° |
| 2026-04-24 03:43 | -2.43122 | 116.91310 | 26093 ft | 424 kts | 188° |
| 2026-04-24 03:43 | -2.46038 | 116.90815 | 26448 ft | 427 kts | 188° |
| 2026-04-24 03:43 | -2.48978 | 116.90315 | 26793 ft | 429 kts | 188° |
| 2026-04-24 03:43 | -2.51926 | 116.89814 | 27129 ft | 432 kts | 187° |
| 2026-04-24 03:44 | -2.54898 | 116.89310 | 27466 ft | 434 kts | 187° |
| 2026-04-24 03:44 | -2.57887 | 116.88802 | 27797 ft | 437 kts | 187° |
| 2026-04-24 03:44 | -2.60888 | 116.88292 | 28118 ft | 439 kts | 187° |
| 2026-04-24 03:44 | -2.63918 | 116.87776 | 28431 ft | 442 kts | 187° |
| 2026-04-24 03:45 | -2.66959 | 116.87259 | 28744 ft | 444 kts | 187° |
| 2026-04-24 03:45 | -2.70012 | 116.86739 | 29056 ft | 446 kts | 187° |
| 2026-04-24 03:45 | -2.73041 | 116.86222 | 29361 ft | 448 kts | 187° |
| 2026-04-24 03:45 | -2.76121 | 116.85698 | 29653 ft | 450 kts | 187° |
| 2026-04-24 03:46 | -2.79218 | 116.85169 | 29994 ft | 451 kts | 189° |
| 2026-04-24 03:46 | -2.82203 | 116.84195 | 30307 ft | 455 kts | 206° |
| 2026-04-24 03:46 | -2.84821 | 116.82420 | 30705 ft | 455 kts | 217° |
| 2026-04-24 03:46 | -2.87269 | 116.80430 | 31097 ft | 453 kts | 218° |
| 2026-04-24 03:47 | -2.89695 | 116.78409 | 31405 ft | 454 kts | 218° |
| 2026-04-24 03:47 | -2.92130 | 116.76388 | 31709 ft | 455 kts | 217° |
| 2026-04-24 03:47 | -2.94570 | 116.74386 | 32071 ft | 454 kts | 217° |
| 2026-04-24 03:47 | -2.97018 | 116.72399 | 32448 ft | 452 kts | 217° |
| 2026-04-24 03:48 | -2.99464 | 116.70425 | 32818 ft | 451 kts | 217° |
| 2026-04-24 03:48 | -3.01911 | 116.68455 | 33172 ft | 451 kts | 217° |
| 2026-04-24 03:48 | -3.04357 | 116.66485 | 33521 ft | 450 kts | 217° |
| 2026-04-24 03:48 | -3.06767 | 116.64545 | 33854 ft | 450 kts | 217° |
| 2026-04-24 03:49 | -3.09333 | 116.62750 | 33849 ft | 452 kts | 203° |
| 2026-04-24 03:49 | -3.15182 | 116.60324 | 33894 ft | 459 kts | 199° |
| 2026-04-24 03:50 | -3.21193 | 116.57958 | 33895 ft | 469 kts | 199° |
| 2026-04-24 03:50 | -3.27292 | 116.55488 | 33893 ft | 477 kts | 200° |
| 2026-04-24 03:51 | -3.33480 | 116.52938 | 33890 ft | 484 kts | 200° |
| 2026-04-24 03:51 | -3.39690 | 116.50367 | 33882 ft | 486 kts | 200° |
| 2026-04-24 03:52 | -3.45967 | 116.47771 | 33879 ft | 487 kts | 200° |
| 2026-04-24 03:52 | -3.52233 | 116.45182 | 33882 ft | 487 kts | 200° |
| 2026-04-24 03:53 | -3.58489 | 116.42597 | 33880 ft | 486 kts | 200° |
| 2026-04-24 03:53 | -3.64745 | 116.40010 | 33880 ft | 486 kts | 200° |
| 2026-04-24 03:54 | -3.70952 | 116.37441 | 33880 ft | 485 kts | 200° |
| 2026-04-24 03:54 | -3.77217 | 116.34928 | 33874 ft | 483 kts | 195° |
| 2026-04-24 03:55 | -3.83727 | 116.33301 | 33878 ft | 481 kts | 191° |
| 2026-04-24 03:55 | -3.90291 | 116.31830 | 33884 ft | 485 kts | 191° |
| 2026-04-24 03:56 | -3.96900 | 116.30313 | 33882 ft | 489 kts | 191° |
| 2026-04-24 03:56 | -4.03544 | 116.28750 | 33876 ft | 491 kts | 191° |
| 2026-04-24 03:57 | -4.10161 | 116.27179 | 33874 ft | 492 kts | 191° |
| 2026-04-24 03:57 | -4.16819 | 116.25598 | 33873 ft | 492 kts | 191° |
| 2026-04-24 03:58 | -4.23481 | 116.24019 | 33870 ft | 492 kts | 191° |
| 2026-04-24 03:58 | -4.30137 | 116.22442 | 33871 ft | 491 kts | 191° |
| 2026-04-24 03:59 | -4.36790 | 116.20864 | 33871 ft | 491 kts | 191° |
| 2026-04-24 03:59 | -4.43424 | 116.19292 | 33872 ft | 490 kts | 191° |
| 2026-04-24 04:00 | -4.50069 | 116.17716 | 33869 ft | 490 kts | 191° |
| 2026-04-24 04:00 | -4.56700 | 116.16143 | 33873 ft | 489 kts | 191° |
| 2026-04-24 04:01 | -4.63342 | 116.14567 | 33870 ft | 489 kts | 191° |
| 2026-04-24 04:01 | -4.69925 | 116.13004 | 33873 ft | 489 kts | 191° |
| 2026-04-24 04:02 | -4.76541 | 116.11433 | 33877 ft | 489 kts | 191° |
| 2026-04-24 04:02 | -4.83169 | 116.09858 | 33874 ft | 489 kts | 191° |
| 2026-04-24 04:03 | -4.89805 | 116.08279 | 33869 ft | 490 kts | 191° |
| 2026-04-24 04:03 | -4.96444 | 116.06703 | 33870 ft | 490 kts | 191° |
| 2026-04-24 04:04 | -5.03030 | 116.05146 | 33869 ft | 490 kts | 191° |
| 2026-04-24 04:04 | -5.09664 | 116.03574 | 33869 ft | 490 kts | 191° |
| 2026-04-24 04:05 | -5.16305 | 116.01997 | 33869 ft | 490 kts | 191° |
| 2026-04-24 04:05 | -5.22940 | 116.00419 | 33866 ft | 490 kts | 191° |
| 2026-04-24 04:06 | -5.29573 | 115.98841 | 33870 ft | 490 kts | 191° |
| 2026-04-24 04:06 | -5.36212 | 115.97262 | 33868 ft | 490 kts | 191° |
| 2026-04-24 04:07 | -5.42853 | 115.95682 | 33870 ft | 490 kts | 191° |
| 2026-04-24 04:07 | -5.49454 | 115.94111 | 33868 ft | 490 kts | 191° |
| 2026-04-24 04:08 | -5.56102 | 115.92528 | 33868 ft | 490 kts | 191° |
| 2026-04-24 04:08 | -5.62741 | 115.90947 | 33869 ft | 490 kts | 191° |
| 2026-04-24 04:09 | -5.69375 | 115.89367 | 33864 ft | 488 kts | 191° |
| 2026-04-24 04:09 | -5.75944 | 115.87801 | 33862 ft | 482 kts | 191° |
| 2026-04-24 04:10 | -5.82468 | 115.86246 | 33866 ft | 481 kts | 191° |
| 2026-04-24 04:10 | -5.88976 | 115.84696 | 33865 ft | 480 kts | 191° |
| 2026-04-24 04:11 | -5.98628 | 115.82111 | 33862 ft | 483 kts | 200° |
| 2026-04-24 04:11 | -6.04789 | 115.79390 | 33870 ft | 484 kts | 203° |
| 2026-04-24 04:12 | -6.10916 | 115.76566 | 33868 ft | 485 kts | 202° |
| 2026-04-24 04:12 | -6.17084 | 115.73775 | 33866 ft | 487 kts | 202° |
| 2026-04-24 04:13 | -6.23291 | 115.71011 | 33865 ft | 487 kts | 202° |
| 2026-04-24 04:13 | -6.29489 | 115.68265 | 33875 ft | 491 kts | 202° |
| 2026-04-24 04:14 | -6.35772 | 115.65480 | 33873 ft | 495 kts | 202° |
| 2026-04-24 04:14 | -6.42077 | 115.62681 | 33867 ft | 496 kts | 202° |
| 2026-04-24 04:15 | -6.48403 | 115.59871 | 33864 ft | 497 kts | 202° |
| 2026-04-24 04:15 | -6.54728 | 115.57060 | 33860 ft | 495 kts | 202° |
| 2026-04-24 04:16 | -6.60961 | 115.54208 | 33857 ft | 490 kts | 206° |
| 2026-04-24 04:16 | -6.67106 | 115.51272 | 33867 ft | 488 kts | 201° |
| 2026-04-24 04:17 | -6.73421 | 115.48746 | 33862 ft | 487 kts | 200° |
| 2026-04-24 04:17 | -6.79700 | 115.46259 | 33871 ft | 490 kts | 200° |
| 2026-04-24 04:18 | -6.86038 | 115.43681 | 33877 ft | 493 kts | 201° |
| 2026-04-24 04:18 | -6.92416 | 115.41048 | 33873 ft | 496 kts | 201° |
| 2026-04-24 04:19 | -6.98814 | 115.38399 | 33864 ft | 497 kts | 201° |
| 2026-04-24 04:19 | -7.05223 | 115.35746 | 33862 ft | 498 kts | 201° |
| 2026-04-24 04:20 | -7.11641 | 115.33092 | 33868 ft | 498 kts | 201° |
| 2026-04-24 04:20 | -7.18049 | 115.30442 | 33866 ft | 498 kts | 201° |
| 2026-04-24 04:21 | -7.24464 | 115.27788 | 33867 ft | 498 kts | 201° |
| 2026-04-24 04:21 | -7.30875 | 115.25135 | 33873 ft | 498 kts | 201° |
| 2026-04-24 04:22 | -7.37221 | 115.22507 | 33838 ft | 490 kts | 201° |
| 2026-04-24 04:22 | -7.40332 | 115.21218 | 33479 ft | 478 kts | 201° |
| 2026-04-24 04:22 | -7.43377 | 115.19955 | 32686 ft | 470 kts | 201° |
| 2026-04-24 04:23 | -7.46412 | 115.18699 | 31474 ft | 473 kts | 201° |
| 2026-04-24 04:23 | -7.49476 | 115.17431 | 30152 ft | 479 kts | 201° |
| 2026-04-24 04:23 | -7.52584 | 115.16145 | 28635 ft | 484 kts | 201° |
| 2026-04-24 04:23 | -7.55702 | 115.14857 | 27174 ft | 485 kts | 201° |
| 2026-04-24 04:24 | -7.58802 | 115.13580 | 26371 ft | 474 kts | 201° |
| 2026-04-24 04:24 | -7.61774 | 115.12348 | 25650 ft | 461 kts | 202° |
| 2026-04-24 04:24 | -7.64731 | 115.11117 | 24986 ft | 449 kts | 202° |
| 2026-04-24 04:24 | -7.67553 | 115.09942 | 24338 ft | 441 kts | 202° |
| 2026-04-24 04:25 | -7.70400 | 115.08759 | 23697 ft | 445 kts | 202° |
| 2026-04-24 04:25 | -7.73337 | 115.07541 | 22941 ft | 468 kts | 202° |
| 2026-04-24 04:25 | -7.76378 | 115.06280 | 22175 ft | 472 kts | 202° |
| 2026-04-24 04:25 | -7.79414 | 115.05022 | 21456 ft | 470 kts | 202° |
| 2026-04-24 04:26 | -7.81410 | 115.04194 | 20989 ft | 467 kts | 202° |
| 2026-04-24 04:26 | -7.84407 | 115.02950 | 20291 ft | 463 kts | 202° |
| 2026-04-24 04:26 | -7.87386 | 115.01713 | 19578 ft | 460 kts | 201° |
| 2026-04-24 04:26 | -7.90339 | 115.00487 | 18874 ft | 457 kts | 201° |
| 2026-04-24 04:27 | -7.93271 | 114.99269 | 18175 ft | 454 kts | 201° |
| 2026-04-24 04:27 | -7.96189 | 114.98057 | 17388 ft | 449 kts | 201° |
| 2026-04-24 04:27 | -7.99976 | 114.96484 | 16456 ft | 440 kts | 201° |
| 2026-04-24 04:27 | -8.01883 | 114.95691 | 16004 ft | 437 kts | 201° |
| 2026-04-24 04:28 | -8.04678 | 114.94529 | 15312 ft | 432 kts | 201° |
| 2026-04-24 04:28 | -8.07410 | 114.93394 | 14643 ft | 428 kts | 201° |
| 2026-04-24 04:28 | -8.10155 | 114.92253 | 13976 ft | 425 kts | 201° |
| 2026-04-24 04:28 | -8.12891 | 114.91119 | 13256 ft | 422 kts | 201° |
| 2026-04-24 04:29 | -8.15595 | 114.89998 | 12610 ft | 418 kts | 201° |
| 2026-04-24 04:29 | -8.18247 | 114.88893 | 12324 ft | 404 kts | 201° |
| 2026-04-24 04:29 | -8.20843 | 114.87810 | 11432 ft | 407 kts | 201° |
| 2026-04-24 04:29 | -8.23434 | 114.86732 | 11101 ft | 395 kts | 201° |
| 2026-04-24 04:30 | -8.25938 | 114.85688 | 10867 ft | 382 kts | 201° |
| 2026-04-24 04:30 | -8.28358 | 114.84679 | 10695 ft | 368 kts | 201° |
| 2026-04-24 04:30 | -8.30687 | 114.83709 | 10541 ft | 355 kts | 201° |
| 2026-04-24 04:30 | -8.32928 | 114.82775 | 10394 ft | 343 kts | 201° |
| 2026-04-24 04:31 | -8.35076 | 114.81880 | 10238 ft | 333 kts | 201° |
| 2026-04-24 04:31 | -8.37189 | 114.80999 | 10110 ft | 323 kts | 201° |
| 2026-04-24 04:31 | -8.39236 | 114.80145 | 9956 ft | 315 kts | 201° |
| 2026-04-24 04:31 | -8.41272 | 114.79460 | 9880 ft | 301 kts | 184° |
| 2026-04-24 04:32 | -8.43273 | 114.79707 | 9602 ft | 286 kts | 159° |
| 2026-04-24 04:32 | -8.45134 | 114.80381 | 9135 ft | 283 kts | 158° |
| 2026-04-24 04:32 | -8.46988 | 114.81053 | 8639 ft | 283 kts | 158° |
| 2026-04-24 04:32 | -8.48837 | 114.81718 | 8181 ft | 281 kts | 158° |
| 2026-04-24 04:33 | -8.50670 | 114.82373 | 7749 ft | 279 kts | 158° |
| 2026-04-24 04:33 | -8.52493 | 114.83020 | 7301 ft | 277 kts | 158° |
| 2026-04-24 04:33 | -8.54322 | 114.83666 | 6945 ft | 279 kts | 159° |
| 2026-04-24 04:33 | -8.56144 | 114.84308 | 6710 ft | 276 kts | 159° |
| 2026-04-24 04:34 | -8.57952 | 114.84943 | 6456 ft | 274 kts | 159° |
| 2026-04-24 04:34 | -8.59711 | 114.85561 | 6107 ft | 270 kts | 159° |
| 2026-04-24 04:34 | -8.61490 | 114.86186 | 5617 ft | 271 kts | 159° |
| 2026-04-24 04:34 | -8.63266 | 114.86809 | 5225 ft | 267 kts | 159° |
| 2026-04-24 04:35 | -8.65020 | 114.87424 | 4915 ft | 267 kts | 159° |
| 2026-04-24 04:35 | -8.66774 | 114.88039 | 4627 ft | 266 kts | 159° |
| 2026-04-24 04:35 | -8.68486 | 114.88748 | 4122 ft | 270 kts | 143° |
| 2026-04-24 04:35 | -8.69665 | 114.90166 | 3826 ft | 259 kts | 119° |
| 2026-04-24 04:36 | -8.70586 | 114.91717 | 3633 ft | 255 kts | 120° |
| 2026-04-24 04:36 | -8.71509 | 114.93205 | 3564 ft | 242 kts | 121° |
| 2026-04-24 04:36 | -8.72399 | 114.94593 | 3467 ft | 229 kts | 121° |
| 2026-04-24 04:36 | -8.73249 | 114.95902 | 3367 ft | 217 kts | 121° |
| 2026-04-24 04:37 | -8.74052 | 114.97134 | 3287 ft | 203 kts | 121° |
| 2026-04-24 04:37 | -8.74811 | 114.98292 | 3140 ft | 194 kts | 121° |
| 2026-04-24 04:37 | -8.75298 | 114.99517 | 2932 ft | 187 kts | 92° |
| 2026-04-24 04:37 | -8.75353 | 115.00834 | 2722 ft | 190 kts | 91° |
| 2026-04-24 04:38 | -8.75376 | 115.02186 | 2451 ft | 194 kts | 88° |
| 2026-04-24 04:38 | -8.75348 | 115.03524 | 2220 ft | 191 kts | 87° |
| 2026-04-24 04:38 | -8.75302 | 115.04859 | 1972 ft | 189 kts | 87° |
| 2026-04-24 04:38 | -8.75252 | 115.06176 | 1728 ft | 186 kts | 87° |
| 2026-04-24 04:39 | -8.75202 | 115.07468 | 1517 ft | 181 kts | 87° |
| 2026-04-24 04:39 | -8.75153 | 115.08708 | 1268 ft | 172 kts | 88° |
| 2026-04-24 04:39 | -8.75108 | 115.09861 | 1101 ft | 153 kts | 88° |
| 2026-04-24 04:39 | -8.75069 | 115.10885 | 881 ft | 141 kts | 87° |
| 2026-04-24 04:40 | -8.75030 | 115.11860 | 701 ft | 139 kts | 88° |
| 2026-04-24 04:40 | -8.74991 | 115.12837 | 557 ft | 138 kts | 88° |
| 2026-04-24 04:40 | -8.74952 | 115.13816 | 427 ft | 142 kts | 89° |
| 2026-04-24 04:40 | -8.74914 | 115.14812 | 200 ft | 140 kts | 88° |
| 2026-04-24 04:41 | -8.74874 | 115.15771 | 30 ft | 130 kts | 88° |
| 2026-04-24 04:41 | -8.74844 | 115.16549 | 20 ft | 86 kts | 87° |
| 2026-04-24 04:41 | -8.74724 | 115.16851 | 19 ft | 20 kts | 17° |
| 2026-04-24 04:41 | -8.74606 | 115.16795 | 19 ft | 8 kts | 327° |
| 2026-04-24 04:42 | -8.74557 | 115.16799 | 20 ft | 7 kts | 15° |
| 2026-04-24 04:42 | -8.74538 | 115.16799 | 19 ft | 0 kts | 354° |